createdAt,value
2022-12-17T00:00:28.310Z,-3.82
2022-12-17T00:01:53.642Z,-3.80
2022-12-17T00:03:16.500Z,-3.82
2022-12-17T00:04:37.389Z,-3.83
2022-12-17T00:05:58.009Z,-3.85
2022-12-17T00:07:18.847Z,-3.86
2022-12-17T00:08:39.116Z,-3.87
2022-12-17T00:09:59.665Z,-3.88
2022-12-17T00:11:20.272Z,-3.89
2022-12-17T00:12:41.096Z,-3.90
2022-12-17T00:14:01.347Z,-3.92
2022-12-17T00:15:22.110Z,-3.93
2022-12-17T00:16:44.710Z,-3.95
2022-12-17T00:18:07.055Z,-3.97
2022-12-17T00:19:27.766Z,-3.98
2022-12-17T00:20:48.358Z,-4.00
2022-12-17T00:22:08.844Z,-4.02
2022-12-17T00:23:31.288Z,-4.03
2022-12-17T00:24:52.178Z,-4.06
2022-12-17T00:26:13.204Z,-4.07
2022-12-17T00:27:33.736Z,-4.07
2022-12-17T00:28:54.440Z,-4.09
2022-12-17T00:30:16.620Z,-4.10
2022-12-17T00:31:38.585Z,-4.11
2022-12-17T00:32:59.465Z,-4.12
2022-12-17T00:34:21.464Z,-4.14
2022-12-17T00:35:50.411Z,-4.16
2022-12-17T00:37:10.741Z,-4.18
2022-12-17T00:38:33.752Z,-4.19
2022-12-17T00:39:59.096Z,-4.22
2022-12-17T00:41:22.738Z,-4.24
2022-12-17T00:42:42.895Z,-4.26
2022-12-17T00:44:05.616Z,-4.27
2022-12-17T00:45:26.815Z,-4.29
2022-12-17T00:46:47.526Z,-4.29
2022-12-17T00:48:08.281Z,-4.30
2022-12-17T00:49:30.020Z,-4.32
2022-12-17T00:50:51.246Z,-4.33
2022-12-17T00:52:12.438Z,-4.34
2022-12-17T00:53:33.104Z,-4.36
2022-12-17T00:54:53.780Z,-4.37
2022-12-17T00:56:16.959Z,-4.42
2022-12-17T00:57:37.627Z,-4.39
2022-12-17T00:58:58.387Z,-4.42
2022-12-17T01:00:18.629Z,-4.42
2022-12-17T01:01:39.414Z,-4.43
2022-12-17T01:03:00.186Z,-4.44
2022-12-17T01:04:20.847Z,-4.46
2022-12-17T01:05:42.678Z,-4.47
2022-12-17T01:07:03.809Z,-4.48
2022-12-17T01:08:28.617Z,-4.49
2022-12-17T01:09:48.988Z,-4.51
2022-12-17T01:11:08.827Z,-4.51
2022-12-17T01:12:30.259Z,-4.52
2022-12-17T01:13:51.031Z,-4.53
2022-12-17T01:15:12.251Z,-4.54
2022-12-17T01:16:33.734Z,-4.54
2022-12-17T01:17:54.557Z,-4.56
2022-12-17T01:19:17.327Z,-4.56
2022-12-17T01:20:37.790Z,-4.58
2022-12-17T01:22:00.245Z,-4.60
2022-12-17T01:23:20.728Z,-4.60
2022-12-17T01:24:41.291Z,-4.61
2022-12-17T01:26:01.939Z,-4.61
2022-12-17T01:27:22.536Z,-4.62
2022-12-17T01:28:45.359Z,-4.63
2022-12-17T01:30:05.963Z,-4.64
2022-12-17T01:31:31.434Z,-4.65
2022-12-17T01:32:54.940Z,-4.67
2022-12-17T01:34:15.636Z,-4.68
2022-12-17T01:35:36.404Z,-4.74
2022-12-17T01:36:56.693Z,-4.70
2022-12-17T01:38:18.547Z,-4.71
2022-12-17T01:39:39.401Z,-4.72
2022-12-17T01:40:59.706Z,-4.74
2022-12-17T01:42:28.578Z,-4.75
2022-12-17T01:43:50.918Z,-4.77
2022-12-17T01:45:12.542Z,-4.81
2022-12-17T01:46:33.278Z,-4.78
2022-12-17T01:47:56.319Z,-4.80
2022-12-17T01:49:17.517Z,-4.82
2022-12-17T01:50:39.810Z,-4.82
2022-12-17T01:52:00.456Z,-4.88
2022-12-17T01:53:24.898Z,-4.84
2022-12-17T01:54:45.310Z,-4.84
2022-12-17T01:56:06.998Z,-4.85
2022-12-17T01:57:28.141Z,-4.86
2022-12-17T01:58:49.311Z,-4.86
2022-12-17T02:00:14.785Z,-4.87
2022-12-17T02:01:36.091Z,-4.88
2022-12-17T02:02:56.742Z,-4.89
2022-12-17T02:04:18.014Z,-4.91
2022-12-17T02:05:45.365Z,-4.92
2022-12-17T02:07:17.757Z,-4.93
2022-12-17T02:08:49.444Z,-4.98
2022-12-17T02:10:21.384Z,-4.94
2022-12-17T02:11:48.742Z,-4.94
2022-12-17T02:13:14.316Z,-5.01
2022-12-17T02:14:41.589Z,-4.93
2022-12-17T02:16:07.355Z,-4.94
2022-12-17T02:17:33.798Z,-4.95
2022-12-17T02:18:59.009Z,-4.95
2022-12-17T02:20:32.445Z,-4.97
2022-12-17T02:21:55.698Z,-4.99
2022-12-17T02:23:29.952Z,-4.99
2022-12-17T02:24:58.116Z,-4.99
2022-12-17T02:26:22.304Z,-5.01
2022-12-17T02:27:44.805Z,-5.01
2022-12-17T02:29:10.609Z,-5.02
2022-12-17T02:30:31.165Z,-5.03
2022-12-17T02:31:55.172Z,-5.03
2022-12-17T02:33:18.580Z,-5.02
2022-12-17T02:34:40.875Z,-5.03
2022-12-17T02:36:04.742Z,-5.04
2022-12-17T02:37:28.434Z,-5.04
2022-12-17T02:38:50.315Z,-5.18
2022-12-17T02:40:10.961Z,-5.06
2022-12-17T02:41:34.343Z,-5.06
2022-12-17T02:42:56.929Z,-5.08
2022-12-17T02:44:19.093Z,-5.07
2022-12-17T02:45:40.526Z,-5.07
2022-12-17T02:47:02.147Z,-5.13
2022-12-17T02:48:24.971Z,-5.10
2022-12-17T02:49:45.761Z,-5.11
2022-12-17T02:51:07.056Z,-5.11
2022-12-17T02:52:34.552Z,-5.11
2022-12-17T02:54:10.386Z,-5.12
2022-12-17T02:55:31.273Z,-5.13
2022-12-17T02:56:51.410Z,-5.13
2022-12-17T02:58:13.584Z,-5.13
2022-12-17T02:59:42.712Z,-5.13
2022-12-17T03:01:08.888Z,-5.13
2022-12-17T03:02:30.690Z,-5.13
2022-12-17T03:04:02.672Z,-5.14
2022-12-17T03:05:43.828Z,-5.16
2022-12-17T03:07:05.143Z,-5.16
2022-12-17T03:08:25.874Z,-5.16
2022-12-17T03:09:46.283Z,-5.18
2022-12-17T03:11:06.832Z,-5.17
2022-12-17T03:12:27.200Z,-5.19
2022-12-17T03:13:48.924Z,-5.19
2022-12-17T03:15:09.820Z,-5.20
2022-12-17T03:16:38.333Z,-5.20
2022-12-17T03:17:58.720Z,-5.21
2022-12-17T03:19:19.569Z,-5.20
2022-12-17T03:20:40.299Z,-5.20
2022-12-17T03:22:01.114Z,-5.22
2022-12-17T03:23:21.746Z,-5.21
2022-12-17T03:24:41.920Z,-5.21
2022-12-17T03:26:02.131Z,-5.21
2022-12-17T03:27:22.862Z,-5.20
2022-12-17T03:28:43.488Z,-5.19
2022-12-17T03:30:05.467Z,-5.20
2022-12-17T03:31:25.931Z,-5.20
2022-12-17T03:32:48.806Z,-5.19
2022-12-17T03:34:09.432Z,-5.20
2022-12-17T03:35:30.073Z,-5.20
2022-12-17T03:36:52.077Z,-5.20
2022-12-17T03:38:12.413Z,-5.19
2022-12-17T03:39:33.087Z,-5.24
2022-12-17T03:40:53.342Z,-5.20
2022-12-17T03:42:13.548Z,-5.20
2022-12-17T03:43:34.414Z,-5.20
2022-12-17T03:44:55.246Z,-5.19
2022-12-17T03:46:17.298Z,-5.19
2022-12-17T03:47:37.844Z,-5.20
2022-12-17T03:48:58.440Z,-5.20
2022-12-17T03:50:18.467Z,-5.19
2022-12-17T03:51:38.908Z,-5.19
2022-12-17T03:52:59.399Z,-5.19
2022-12-17T03:54:25.443Z,-5.20
2022-12-17T03:55:46.005Z,-5.20
2022-12-17T03:57:07.315Z,-5.20
2022-12-17T03:58:30.310Z,-5.21
2022-12-17T03:59:58.969Z,-5.21
2022-12-17T04:01:21.255Z,-5.21
2022-12-17T04:02:42.123Z,-5.20
2022-12-17T04:04:02.643Z,-5.20
2022-12-17T04:05:23.951Z,-5.20
2022-12-17T04:06:44.577Z,-5.21
2022-12-17T04:08:04.946Z,-5.20
2022-12-17T04:09:25.823Z,-5.20
2022-12-17T04:10:51.300Z,-5.20
2022-12-17T04:12:11.794Z,-5.20
2022-12-17T04:13:35.879Z,-5.20
2022-12-17T04:14:59.260Z,-5.20
2022-12-17T04:16:21.465Z,-5.45
2022-12-17T04:17:42.082Z,-5.21
2022-12-17T04:19:02.362Z,-5.21
2022-12-17T04:20:24.275Z,-5.23
2022-12-17T04:21:44.417Z,-5.23
2022-12-17T04:23:05.084Z,-5.24
2022-12-17T04:24:25.728Z,-5.26
2022-12-17T04:25:46.029Z,-5.24
2022-12-17T04:27:06.740Z,-5.24
2022-12-17T04:28:26.999Z,-5.26
2022-12-17T04:29:47.308Z,-5.26
2022-12-17T04:31:07.492Z,-5.25
2022-12-17T04:32:34.878Z,-5.26
2022-12-17T04:33:55.528Z,-5.26
2022-12-17T04:35:15.748Z,-5.28
2022-12-17T04:36:36.113Z,-5.28
2022-12-17T04:37:56.816Z,-5.29
2022-12-17T04:39:17.271Z,-5.31
2022-12-17T04:40:40.656Z,-5.32
2022-12-17T04:42:00.842Z,-5.33
2022-12-17T04:43:24.467Z,-5.33
2022-12-17T04:44:45.328Z,-5.34
2022-12-17T04:46:08.236Z,-5.35
2022-12-17T04:47:30.119Z,-5.35
2022-12-17T04:48:50.307Z,-5.35
2022-12-17T04:50:10.687Z,-5.36
2022-12-17T04:51:31.441Z,-5.37
2022-12-17T04:52:51.694Z,-5.37
2022-12-17T04:54:11.948Z,-5.37
2022-12-17T04:55:32.667Z,-5.38
2022-12-17T04:56:52.930Z,-5.38
2022-12-17T04:58:13.129Z,-5.38
2022-12-17T04:59:33.562Z,-5.38
2022-12-17T05:00:53.990Z,-5.37
2022-12-17T05:02:14.751Z,-5.37
2022-12-17T05:03:37.187Z,-5.36
2022-12-17T05:04:57.933Z,-5.35
2022-12-17T05:06:19.125Z,-5.34
2022-12-17T05:07:39.962Z,-5.32
2022-12-17T05:09:00.466Z,-5.32
2022-12-17T05:10:20.754Z,-5.30
2022-12-17T05:11:41.348Z,-5.31
2022-12-17T05:13:01.663Z,-5.29
2022-12-17T05:14:22.376Z,-5.28
2022-12-17T05:15:51.366Z,-5.27
2022-12-17T05:17:13.932Z,-5.26
2022-12-17T05:18:34.368Z,-5.24
2022-12-17T05:19:56.356Z,-5.25
2022-12-17T05:21:17.312Z,-5.20
2022-12-17T05:22:37.970Z,-5.18
2022-12-17T05:23:58.670Z,-5.17
2022-12-17T05:25:18.942Z,-5.15
2022-12-17T05:26:41.367Z,-5.14
2022-12-17T05:28:01.722Z,-5.13
2022-12-17T05:29:23.011Z,-5.13
2022-12-17T05:30:43.313Z,-5.14
2022-12-17T05:32:03.786Z,-5.14
2022-12-17T05:33:24.534Z,-5.14
2022-12-17T05:34:44.815Z,-5.15
2022-12-17T05:36:06.628Z,-5.14
2022-12-17T05:37:27.085Z,-5.14
2022-12-17T05:38:47.512Z,-5.14
2022-12-17T05:40:12.528Z,-5.14
2022-12-17T05:41:33.695Z,-5.13
2022-12-17T05:42:54.017Z,-5.14
2022-12-17T05:44:14.200Z,-5.12
2022-12-17T05:45:34.911Z,-5.13
2022-12-17T05:46:55.724Z,-5.13
2022-12-17T05:48:16.373Z,-5.13
2022-12-17T05:49:36.738Z,-5.14
2022-12-17T05:50:57.122Z,-5.14
2022-12-17T05:52:18.952Z,-5.16
2022-12-17T05:53:39.475Z,-5.15
2022-12-17T05:54:59.787Z,-5.15
2022-12-17T05:56:20.557Z,-5.15
2022-12-17T05:57:41.310Z,-5.15
2022-12-17T05:59:01.712Z,-5.14
2022-12-17T06:00:22.463Z,-5.14
2022-12-17T06:01:43.298Z,-5.14
2022-12-17T06:03:04.114Z,-5.18
2022-12-17T06:04:24.658Z,-5.16
2022-12-17T06:05:45.334Z,-5.14
2022-12-17T06:07:05.852Z,-5.15
2022-12-17T06:08:28.195Z,-5.15
2022-12-17T06:09:48.977Z,-5.14
2022-12-17T06:11:09.809Z,-5.15
2022-12-17T06:12:30.695Z,-5.14
2022-12-17T06:14:02.619Z,-5.14
2022-12-17T06:15:23.969Z,-5.14
2022-12-17T06:16:44.297Z,-5.15
2022-12-17T06:18:16.427Z,-5.14
2022-12-17T06:19:37.540Z,-5.14
2022-12-17T06:20:58.365Z,-5.14
2022-12-17T06:22:33.548Z,-5.14
2022-12-17T06:23:55.071Z,-5.15
2022-12-17T06:25:15.378Z,-5.14
2022-12-17T06:26:35.838Z,-5.13
2022-12-17T06:27:56.255Z,-5.12
2022-12-17T06:29:16.479Z,-5.13
2022-12-17T06:30:37.059Z,-5.15
2022-12-17T06:31:57.207Z,-5.11
2022-12-17T06:33:24.421Z,-5.13
2022-12-17T06:34:45.135Z,-5.10
2022-12-17T06:36:05.687Z,-5.10
2022-12-17T06:37:25.992Z,-5.09
2022-12-17T06:38:46.317Z,-5.09
2022-12-17T06:40:04.625Z,-5.10
2022-12-17T06:41:25.115Z,-5.09
2022-12-17T06:42:45.523Z,-5.08
2022-12-17T06:44:06.337Z,-5.08
2022-12-17T06:45:27.048Z,-5.08
2022-12-17T06:46:47.295Z,-5.08
2022-12-17T06:48:08.077Z,-5.10
2022-12-17T06:49:28.460Z,-5.08
2022-12-17T06:50:48.713Z,-5.08
2022-12-17T06:52:09.146Z,-5.09
2022-12-17T06:53:29.934Z,-5.16
2022-12-17T06:54:50.208Z,-5.08
2022-12-17T06:56:12.384Z,-5.08
2022-12-17T06:57:36.532Z,-5.08
2022-12-17T06:59:00.831Z,-5.11
2022-12-17T07:00:21.711Z,-5.11
2022-12-17T07:01:42.029Z,-5.11
2022-12-17T07:03:02.839Z,-5.12
2022-12-17T07:04:23.664Z,-5.12
2022-12-17T07:05:44.460Z,-5.14
2022-12-17T07:07:01.133Z,-5.12
2022-12-17T07:08:21.731Z,-5.13
2022-12-17T07:09:41.889Z,-5.12
2022-12-17T07:11:07.889Z,-5.14
2022-12-17T07:12:29.398Z,-5.19
2022-12-17T07:13:49.974Z,-5.27
2022-12-17T07:15:10.210Z,-5.14
2022-12-17T07:16:31.003Z,-5.15
2022-12-17T07:17:51.188Z,-5.15
2022-12-17T07:19:17.287Z,-5.15
2022-12-17T07:20:37.562Z,-5.14
2022-12-17T07:21:57.795Z,-5.14
2022-12-17T07:23:18.136Z,-5.13
2022-12-17T07:24:39.033Z,-5.13
2022-12-17T07:25:59.763Z,-5.12
2022-12-17T07:27:20.556Z,-5.13
2022-12-17T07:28:42.387Z,-5.14
2022-12-17T07:30:03.063Z,-5.13
2022-12-17T07:31:24.064Z,-5.13
2022-12-17T07:32:44.930Z,-5.13
2022-12-17T07:34:05.477Z,-5.12
2022-12-17T07:35:26.696Z,-5.12
2022-12-17T07:36:47.426Z,-5.11
2022-12-17T07:38:08.226Z,-5.09
2022-12-17T07:39:28.595Z,-5.07
2022-12-17T07:40:54.320Z,-5.06
2022-12-17T07:42:14.799Z,-5.04
2022-12-17T07:43:35.529Z,-5.03
2022-12-17T07:44:57.444Z,-5.02
2022-12-17T07:46:17.772Z,-5.00
2022-12-17T07:47:38.270Z,-4.99
2022-12-17T07:48:58.707Z,-4.96
2022-12-17T07:50:19.420Z,-4.94
2022-12-17T07:51:39.019Z,-4.91
2022-12-17T07:52:59.744Z,-4.89
2022-12-17T07:54:20.005Z,-4.87
2022-12-17T07:55:40.740Z,-4.85
2022-12-17T07:57:01.482Z,-4.81
2022-12-17T07:58:24.217Z,-4.79
2022-12-17T07:59:44.971Z,-4.77
2022-12-17T08:01:06.847Z,-4.85
2022-12-17T08:02:28.878Z,-4.81
2022-12-17T08:03:49.503Z,-4.71
2022-12-17T08:05:10.162Z,-4.69
2022-12-17T08:06:30.359Z,-4.66
2022-12-17T08:07:56.524Z,-4.63
2022-12-17T08:09:16.877Z,-4.62
2022-12-17T08:10:40.235Z,-4.59
2022-12-17T08:12:00.922Z,-4.57
2022-12-17T08:13:23.776Z,-4.54
2022-12-17T08:14:44.024Z,-4.51
2022-12-17T08:16:05.130Z,-4.49
2022-12-17T08:17:27.010Z,-4.47
2022-12-17T08:18:47.796Z,-4.44
2022-12-17T08:20:08.437Z,-4.43
2022-12-17T08:21:29.219Z,-4.39
2022-12-17T08:22:49.407Z,-4.35
2022-12-17T08:24:09.631Z,-4.34
2022-12-17T08:25:30.399Z,-4.31
2022-12-17T08:26:51.669Z,-4.29
2022-12-17T08:28:41.587Z,-4.25
2022-12-17T08:29:58.026Z,-4.20
2022-12-17T08:31:18.837Z,-4.18
2022-12-17T08:32:40.969Z,-4.13
2022-12-17T08:34:07.626Z,-4.11
2022-12-17T08:35:28.864Z,-4.08
2022-12-17T08:36:49.230Z,-4.04
2022-12-17T08:38:11.943Z,-4.00
2022-12-17T08:39:32.162Z,-3.97
2022-12-17T08:40:52.585Z,-3.94
2022-12-17T08:42:13.042Z,-3.91
2022-12-17T08:43:34.139Z,-3.87
2022-12-17T08:44:54.954Z,-3.83
2022-12-17T08:46:17.775Z,-3.78
2022-12-17T08:47:38.386Z,-3.74
2022-12-17T08:48:56.614Z,-3.71
2022-12-17T08:50:17.325Z,-3.68
2022-12-17T08:51:38.178Z,-3.65
2022-12-17T08:52:58.504Z,-3.61
2022-12-17T08:54:19.081Z,-3.57
2022-12-17T08:55:39.297Z,-3.56
2022-12-17T08:56:59.483Z,-3.53
2022-12-17T08:58:25.113Z,-3.50
2022-12-17T08:59:45.580Z,-3.48
2022-12-17T09:01:05.979Z,-3.45
2022-12-17T09:02:28.416Z,-3.43
2022-12-17T09:03:49.406Z,-3.39
2022-12-17T09:05:11.000Z,-3.37
2022-12-17T09:06:40.371Z,-3.34
2022-12-17T09:08:01.212Z,-3.31
2022-12-17T09:09:21.662Z,-3.28
2022-12-17T09:10:42.000Z,-3.26
2022-12-17T09:12:02.684Z,-3.29
2022-12-17T09:13:23.144Z,-3.25
2022-12-17T09:14:43.819Z,-3.17
2022-12-17T09:16:10.280Z,-3.16
2022-12-17T09:17:30.908Z,-3.13
2022-12-17T09:18:51.284Z,-3.10
2022-12-17T09:20:13.240Z,-3.06
2022-12-17T09:21:33.797Z,-3.04
2022-12-17T09:22:54.586Z,-3.01
2022-12-17T09:24:14.828Z,-2.98
2022-12-17T09:25:35.509Z,-2.95
2022-12-17T09:26:56.233Z,-2.91
2022-12-17T09:28:19.424Z,-2.88
2022-12-17T09:29:39.737Z,-2.85
2022-12-17T09:31:00.636Z,-2.82
2022-12-17T09:32:21.281Z,-2.78
2022-12-17T09:33:42.033Z,-2.76
2022-12-17T09:35:02.236Z,-2.74
2022-12-17T09:36:27.720Z,-2.72
2022-12-17T09:37:48.057Z,-2.68
2022-12-17T09:39:08.745Z,-2.66
2022-12-17T09:40:37.325Z,-2.63
2022-12-17T09:42:08.195Z,-2.61
2022-12-17T09:43:41.690Z,-2.58
2022-12-17T09:45:09.060Z,-2.57
2022-12-17T09:46:39.270Z,-2.53
2022-12-17T09:48:10.626Z,-2.49
2022-12-17T09:49:36.618Z,-2.46
2022-12-17T09:50:57.044Z,-2.43
2022-12-17T09:52:27.760Z,-2.41
2022-12-17T09:53:55.340Z,-2.38
2022-12-17T09:55:15.960Z,-2.35
2022-12-17T09:56:40.071Z,-2.33
2022-12-17T09:58:00.869Z,-2.31
2022-12-17T09:59:21.638Z,-2.29
2022-12-17T10:00:43.356Z,-2.27
2022-12-17T10:02:04.196Z,-2.25
2022-12-17T10:03:35.007Z,-2.21
2022-12-17T10:05:00.540Z,-2.18
2022-12-17T10:06:32.056Z,-2.16
2022-12-17T10:07:57.365Z,-2.12
2022-12-17T10:09:19.473Z,-2.11
2022-12-17T10:10:43.699Z,-2.05
2022-12-17T10:12:04.481Z,-2.03
2022-12-17T10:13:32.296Z,-2.00
2022-12-17T10:14:52.884Z,-1.96
2022-12-17T10:16:13.609Z,-1.95
2022-12-17T10:17:36.947Z,-1.91
2022-12-17T10:18:57.355Z,-1.88
2022-12-17T10:20:18.649Z,-1.85
2022-12-17T10:21:50.984Z,-1.83
2022-12-17T10:23:12.884Z,-1.81
2022-12-17T10:24:33.624Z,-1.93
2022-12-17T10:25:54.643Z,-1.75
2022-12-17T10:27:15.946Z,-1.74
2022-12-17T10:28:38.148Z,-1.70
2022-12-17T10:30:00.429Z,-1.72
2022-12-17T10:31:25.891Z,-1.65
2022-12-17T10:32:47.110Z,-1.65
2022-12-17T10:34:07.270Z,-1.66
2022-12-17T10:35:35.245Z,-1.64
2022-12-17T10:36:55.430Z,-1.65
2022-12-17T10:38:18.877Z,-1.64
2022-12-17T10:39:42.875Z,-1.64
2022-12-17T10:41:03.506Z,-1.58
2022-12-17T10:42:38.331Z,-1.55
2022-12-17T10:44:00.130Z,-1.53
2022-12-17T10:45:37.768Z,-1.51
2022-12-17T10:47:03.821Z,-1.50
2022-12-17T10:48:36.816Z,-1.48
2022-12-17T10:49:57.111Z,-1.44
2022-12-17T10:51:17.877Z,-1.41
2022-12-17T10:52:41.848Z,-1.38
2022-12-17T10:54:08.156Z,-1.34
2022-12-17T10:55:41.037Z,-1.32
2022-12-17T10:57:01.613Z,-1.29
2022-12-17T10:58:22.262Z,-1.27
2022-12-17T10:59:50.990Z,-1.24
2022-12-17T11:01:18.425Z,-1.22
2022-12-17T11:02:44.664Z,-1.19
2022-12-17T11:04:09.860Z,-1.16
2022-12-17T11:05:32.695Z,-1.14
2022-12-17T11:06:54.841Z,-1.09
2022-12-17T11:08:17.170Z,-1.06
2022-12-17T11:09:48.987Z,-1.04
2022-12-17T11:11:09.615Z,-1.01
2022-12-17T11:12:31.917Z,-0.98
2022-12-17T11:13:58.886Z,-0.95
2022-12-17T11:15:27.472Z,-0.91
2022-12-17T11:16:52.627Z,-0.89
2022-12-17T11:18:14.202Z,-0.88
2022-12-17T11:19:49.780Z,-0.81
2022-12-17T11:21:17.003Z,-0.77
2022-12-17T11:22:47.306Z,-0.73
2022-12-17T11:24:23.006Z,-0.70
2022-12-17T11:25:52.627Z,-0.67
2022-12-17T11:27:16.436Z,-0.64
2022-12-17T11:28:41.951Z,-0.62
2022-12-17T11:30:02.747Z,-0.60
2022-12-17T11:31:39.610Z,-0.59
2022-12-17T11:33:24.290Z,-0.57
2022-12-17T11:34:53.212Z,-0.52
2022-12-17T11:36:24.219Z,-0.51
2022-12-17T11:37:56.870Z,-0.45
2022-12-17T11:39:23.806Z,-0.41
2022-12-17T11:40:52.888Z,-0.39
2022-12-17T11:42:18.687Z,-0.35
2022-12-17T11:43:48.028Z,-0.32
2022-12-17T11:45:18.524Z,-0.29
2022-12-17T11:46:53.271Z,-0.25
2022-12-17T11:48:19.043Z,-0.22
2022-12-17T11:49:50.346Z,-0.19
2022-12-17T11:51:16.154Z,-0.15
2022-12-17T11:52:49.553Z,-0.12
2022-12-17T11:54:19.268Z,-0.07
2022-12-17T11:55:48.682Z,-0.04
2022-12-17T11:57:19.145Z,-0.01
2022-12-17T11:58:51.003Z,0.02
2022-12-17T12:00:20.088Z,0.05
2022-12-17T12:01:48.065Z,0.08
2022-12-17T12:03:17.661Z,0.08
2022-12-17T12:05:00.439Z,0.10
2022-12-17T12:06:30.887Z,0.12
2022-12-17T12:08:05.621Z,0.16
2022-12-17T12:09:50.130Z,0.18
2022-12-17T12:11:21.077Z,0.21
2022-12-17T12:12:51.124Z,0.23
2022-12-17T12:14:18.189Z,0.24
2022-12-17T12:15:45.897Z,0.30
2022-12-17T12:17:16.025Z,0.33
2022-12-17T12:18:45.160Z,0.35
2022-12-17T12:20:14.116Z,0.38
2022-12-17T12:21:51.068Z,0.42
2022-12-17T12:23:20.869Z,0.43
2022-12-17T12:24:56.966Z,0.49
2022-12-17T12:26:27.866Z,0.51
2022-12-17T12:27:59.340Z,0.53
2022-12-17T12:29:31.968Z,0.55
2022-12-17T12:31:00.538Z,0.56
2022-12-17T12:32:31.451Z,0.59
2022-12-17T12:33:57.141Z,0.59
2022-12-17T12:35:21.726Z,0.60
2022-12-17T12:36:44.775Z,0.58
2022-12-17T12:38:14.139Z,0.60
2022-12-17T12:39:41.344Z,0.60
2022-12-17T12:41:07.740Z,0.61
2022-12-17T12:42:37.959Z,0.62
2022-12-17T12:44:05.785Z,0.64
2022-12-17T12:45:48.389Z,0.66
2022-12-17T12:47:15.654Z,0.65
2022-12-17T12:48:51.009Z,0.66
2022-12-17T12:50:20.961Z,0.65
2022-12-17T12:51:44.692Z,0.66
2022-12-17T12:53:05.552Z,0.67
2022-12-17T12:54:48.212Z,0.67
2022-12-17T12:56:08.818Z,0.68
2022-12-17T12:57:50.315Z,0.68
2022-12-17T12:59:12.018Z,0.66
2022-12-17T13:00:52.624Z,0.64
2022-12-17T13:02:13.442Z,0.62
2022-12-17T13:03:43.713Z,0.60
2022-12-17T13:05:04.123Z,0.58
2022-12-17T13:06:07.502Z,0.57
2022-12-17T13:07:22.471Z,0.55
2022-12-17T13:08:24.672Z,0.54
2022-12-17T13:09:40.093Z,0.53
2022-12-17T13:10:42.137Z,0.52
2022-12-17T13:11:47.352Z,0.48
2022-12-17T13:12:49.826Z,0.44
2022-12-17T13:13:56.913Z,0.44
2022-12-17T13:15:26.808Z,0.46
2022-12-17T13:16:44.200Z,0.47
2022-12-17T13:17:58.718Z,0.50
2022-12-17T13:19:18.963Z,0.58
2022-12-17T13:20:25.233Z,0.63
2022-12-17T13:21:29.622Z,0.70
2022-12-17T13:22:33.740Z,0.77
2022-12-17T13:23:39.076Z,0.83
2022-12-17T13:24:41.327Z,0.89
2022-12-17T13:25:44.439Z,0.93
2022-12-17T13:26:46.514Z,0.96
2022-12-17T13:27:50.717Z,0.94
2022-12-17T13:29:12.150Z,0.79
2022-12-17T13:30:39.594Z,0.84
2022-12-17T13:32:03.627Z,0.78
2022-12-17T13:33:19.144Z,0.71
2022-12-17T13:34:29.154Z,0.64
2022-12-17T13:35:41.997Z,0.58
2022-12-17T13:36:52.476Z,0.53
2022-12-17T13:38:05.687Z,0.49
2022-12-17T13:39:20.832Z,0.42
2022-12-17T13:40:35.520Z,0.38
2022-12-17T13:41:39.360Z,0.33
2022-12-17T13:42:46.326Z,0.30
2022-12-17T13:43:51.863Z,0.26
2022-12-17T13:44:56.066Z,0.24
2022-12-17T13:45:59.158Z,0.20
2022-12-17T13:47:01.279Z,0.18
2022-12-17T13:48:04.402Z,0.15
2022-12-17T13:49:17.474Z,0.12
2022-12-17T13:50:37.153Z,0.10
2022-12-17T13:51:40.318Z,0.02
2022-12-17T13:52:42.481Z,0.03
2022-12-17T13:53:52.958Z,0.01
2022-12-17T13:55:06.887Z,-0.01
2022-12-17T13:56:11.739Z,-0.04
2022-12-17T13:57:15.779Z,-0.07
2022-12-17T13:58:23.577Z,-0.10
2022-12-17T13:59:26.638Z,-0.10
2022-12-17T14:00:32.428Z,-0.12
2022-12-17T14:01:45.481Z,-0.13
2022-12-17T14:02:48.870Z,-0.17
2022-12-17T14:04:06.312Z,-0.19
2022-12-17T14:05:26.918Z,-0.22
2022-12-17T14:06:34.217Z,-0.24
2022-12-17T14:07:40.620Z,-0.26
2022-12-17T14:08:44.362Z,-0.27
2022-12-17T14:09:46.693Z,-0.30
2022-12-17T14:11:13.793Z,-0.32
2022-12-17T14:12:23.667Z,-0.35
2022-12-17T14:13:25.742Z,-0.37
2022-12-17T14:14:32.760Z,-0.44
2022-12-17T14:15:36.777Z,-0.42
2022-12-17T14:16:47.445Z,-0.46
2022-12-17T14:17:56.415Z,-0.48
2022-12-17T14:18:59.671Z,-0.52
2022-12-17T14:20:06.669Z,-0.57
2022-12-17T14:21:09.962Z,-0.61
2022-12-17T14:22:20.311Z,-0.61
2022-12-17T14:23:27.791Z,-0.64
2022-12-17T14:24:30.144Z,-0.66
2022-12-17T14:25:37.985Z,-0.69
2022-12-17T14:26:49.206Z,-0.72
2022-12-17T14:27:55.820Z,-0.74
2022-12-17T14:28:58.930Z,-0.76
2022-12-17T14:30:01.433Z,-0.77
2022-12-17T14:32:35.658Z,-0.83
2022-12-17T14:33:38.322Z,-0.86
2022-12-17T14:34:43.030Z,-0.89
2022-12-17T14:35:52.402Z,-0.92
2022-12-17T14:36:58.026Z,-0.93
2022-12-17T14:38:01.045Z,-0.96
2022-12-17T14:39:11.069Z,-1.00
2022-12-17T14:40:16.422Z,-1.03
2022-12-17T14:41:37.690Z,-1.06
2022-12-17T14:42:40.754Z,-1.10
2022-12-17T14:43:42.821Z,-1.14
2022-12-17T14:44:54.153Z,-1.15
2022-12-17T14:46:18.672Z,-1.18
2022-12-17T14:47:26.097Z,-1.21
2022-12-17T14:48:49.803Z,-1.23
2022-12-17T14:49:58.671Z,-1.27
2022-12-17T14:51:01.765Z,-1.29
2022-12-17T14:52:14.246Z,-1.34
2022-12-17T14:53:26.995Z,-1.34
2022-12-17T14:54:30.787Z,-1.35
2022-12-17T14:55:37.158Z,-1.36
2022-12-17T14:56:40.252Z,-1.37
2022-12-17T14:57:43.252Z,-1.40
2022-12-17T14:58:45.947Z,-1.43
2022-12-17T14:59:50.296Z,-1.46
2022-12-17T15:00:57.137Z,-1.51
2022-12-17T15:02:02.073Z,-1.51
2022-12-17T15:03:06.861Z,-1.54
2022-12-17T15:04:09.160Z,-1.56
2022-12-17T15:05:15.649Z,-1.59
2022-12-17T15:06:20.793Z,-1.62
2022-12-17T15:07:25.690Z,-1.77
2022-12-17T15:08:33.021Z,-1.70
2022-12-17T15:09:35.927Z,-1.68
2022-12-17T15:10:38.963Z,-1.71
2022-12-17T15:11:40.980Z,-1.74
2022-12-17T15:12:46.518Z,-1.80
2022-12-17T15:13:53.010Z,-1.78
2022-12-17T15:14:59.709Z,-1.79
2022-12-17T15:16:02.198Z,-1.80
2022-12-17T15:17:05.892Z,-1.84
2022-12-17T15:18:09.941Z,-1.86
2022-12-17T15:19:13.436Z,-1.87
2022-12-17T15:20:18.685Z,-1.95
2022-12-17T15:21:22.036Z,-1.91
2022-12-17T15:22:24.512Z,-1.92
2022-12-17T15:23:27.673Z,-1.95
2022-12-17T15:24:30.301Z,-1.96
2022-12-17T15:25:34.901Z,-1.98
2022-12-17T15:26:39.710Z,-1.98
2022-12-17T15:27:43.317Z,-2.02
2022-12-17T15:28:46.709Z,-2.03
2022-12-17T15:29:49.725Z,-2.04
2022-12-17T15:30:52.867Z,-2.06
2022-12-17T15:32:02.271Z,-2.06
2022-12-17T15:33:06.522Z,-2.10
2022-12-17T15:34:12.541Z,-2.09
2022-12-17T15:35:15.211Z,-2.12
2022-12-17T15:36:18.426Z,-2.11
2022-12-17T15:37:25.626Z,-2.12
2022-12-17T15:38:29.075Z,-2.12
2022-12-17T15:39:31.406Z,-2.12
2022-12-17T15:40:34.749Z,-2.12
2022-12-17T15:41:55.239Z,-2.13
2022-12-17T15:43:11.589Z,-2.14
2022-12-17T15:44:14.744Z,-2.16
2022-12-17T15:45:17.104Z,-2.17
2022-12-17T15:46:20.220Z,-2.18
2022-12-17T15:47:23.350Z,-2.19
2022-12-17T15:48:26.447Z,-2.19
2022-12-17T15:49:29.889Z,-2.22
2022-12-17T15:50:33.034Z,-2.22
2022-12-17T15:51:35.380Z,-2.23
2022-12-17T15:52:39.557Z,-2.29
2022-12-17T15:53:41.809Z,-2.26
2022-12-17T15:54:45.263Z,-2.28
2022-12-17T15:55:48.328Z,-2.30
2022-12-17T15:56:53.529Z,-2.33
2022-12-17T15:57:56.915Z,-2.36
2022-12-17T15:58:59.560Z,-2.35
2022-12-17T16:00:06.592Z,-2.53
2022-12-17T16:01:08.650Z,-2.40
2022-12-17T16:02:12.296Z,-2.39
2022-12-17T16:03:15.709Z,-2.40
2022-12-17T16:04:23.158Z,-2.41
2022-12-17T16:05:31.613Z,-2.40
2022-12-17T16:06:34.652Z,-2.43
2022-12-17T16:07:44.497Z,-2.54
2022-12-17T16:08:47.547Z,-2.42
2022-12-17T16:09:50.209Z,-2.43
2022-12-17T16:10:55.687Z,-2.42
2022-12-17T16:11:58.076Z,-2.44
2022-12-17T16:13:01.194Z,-2.45
2022-12-17T16:14:03.424Z,-2.45
2022-12-17T16:15:08.070Z,-2.46
2022-12-17T16:16:10.187Z,-2.47
2022-12-17T16:17:13.332Z,-2.47
2022-12-17T16:18:17.747Z,-2.46
2022-12-17T16:19:22.183Z,-2.48
2022-12-17T16:20:25.422Z,-2.47
2022-12-17T16:21:29.129Z,-2.49
2022-12-17T16:22:32.207Z,-2.47
2022-12-17T16:23:35.899Z,-2.54
2022-12-17T16:24:38.958Z,-2.49
2022-12-17T16:25:41.068Z,-2.50
2022-12-17T16:26:44.147Z,-2.51
2022-12-17T16:27:47.227Z,-2.51
2022-12-17T16:28:49.343Z,-2.55
2022-12-17T16:29:54.857Z,-2.54
2022-12-17T16:30:59.886Z,-2.55
2022-12-17T16:32:03.182Z,-2.55
2022-12-17T16:33:06.257Z,-2.55
2022-12-17T16:34:09.855Z,-2.55
2022-12-17T16:35:14.055Z,-2.56
2022-12-17T16:36:19.295Z,-2.56
2022-12-17T16:37:31.227Z,-2.57
2022-12-17T16:38:33.594Z,-2.58
2022-12-17T16:39:39.147Z,-2.66
2022-12-17T16:40:41.216Z,-2.59
2022-12-17T16:41:44.507Z,-2.61
2022-12-17T16:42:50.257Z,-2.61
2022-12-17T16:43:54.479Z,-2.62
2022-12-17T16:44:59.762Z,-2.63
2022-12-17T16:46:09.136Z,-2.62
2022-12-17T16:47:15.168Z,-2.62
2022-12-17T16:48:19.717Z,-2.64
2022-12-17T16:49:24.449Z,-2.64
2022-12-17T16:50:30.497Z,-2.64
2022-12-17T16:51:33.827Z,-2.64
2022-12-17T16:52:37.400Z,-2.65
2022-12-17T16:53:40.472Z,-2.64
2022-12-17T16:54:43.476Z,-2.64
2022-12-17T16:55:47.880Z,-2.64
2022-12-17T16:56:51.757Z,-2.63
2022-12-17T16:57:53.776Z,-2.63
2022-12-17T16:58:57.893Z,-2.73